sensor_id;sensor_type;location;lat;lon;timestamp;P1;durP1;ratioP1;P2;durP2;ratioP2
69910;SDS011;63555;49.920;17.868;2023-03-01T00:00:27;35.33;;;11.37;;
69910;SDS011;63555;49.920;17.868;2023-03-01T00:05:27;25.80;;;11.13;;
69910;SDS011;63555;49.920;17.868;2023-03-01T00:10:27;32.77;;;12.13;;
69910;SDS011;63555;49.920;17.868;2023-03-01T00:15:28;28.90;;;11.93;;
69910;SDS011;63555;49.920;17.868;2023-03-01T00:20:28;30.13;;;13.07;;
69910;SDS011;63555;49.920;17.868;2023-03-01T00:25:28;33.77;;;13.30;;
69910;SDS011;63555;49.920;17.868;2023-03-01T00:30:29;29.03;;;12.60;;
69910;SDS011;63555;49.920;17.868;2023-03-01T00:35:29;33.37;;;11.53;;
69910;SDS011;63555;49.920;17.868;2023-03-01T00:40:34;39.10;;;11.60;;
69910;SDS011;63555;49.920;17.868;2023-03-01T00:45:35;32.30;;;12.45;;
69910;SDS011;63555;49.920;17.868;2023-03-01T00:50:36;28.43;;;10.53;;
69910;SDS011;63555;49.920;17.868;2023-03-01T00:55:36;33.03;;;12.00;;
69910;SDS011;63555;49.920;17.868;2023-03-01T01:00:37;31.83;;;12.17;;
69910;SDS011;63555;49.920;17.868;2023-03-01T01:05:37;25.43;;;10.83;;
69910;SDS011;63555;49.920;17.868;2023-03-01T01:10:38;28.40;;;11.90;;
69910;SDS011;63555;49.920;17.868;2023-03-01T01:15:38;34.00;;;12.77;;
69910;SDS011;63555;49.920;17.868;2023-03-01T01:20:39;34.67;;;13.32;;
69910;SDS011;63555;49.920;17.868;2023-03-01T01:25:39;33.23;;;14.00;;
69910;SDS011;63555;49.920;17.868;2023-03-01T01:30:40;31.27;;;12.73;;
69910;SDS011;63555;49.920;17.868;2023-03-01T01:35:40;33.37;;;11.73;;
69910;SDS011;63555;49.920;17.868;2023-03-01T01:40:44;28.67;;;11.10;;
69910;SDS011;63555;49.920;17.868;2023-03-01T01:45:45;28.83;;;11.77;;
69910;SDS011;63555;49.920;17.868;2023-03-01T01:50:46;39.80;;;14.60;;
69910;SDS011;63555;49.920;17.868;2023-03-01T01:55:56;31.77;;;12.93;;
69910;SDS011;63555;49.920;17.868;2023-03-01T02:01:00;30.38;;;12.52;;
69910;SDS011;63555;49.920;17.868;2023-03-01T02:11:10;24.93;;;11.73;;
69910;SDS011;63555;49.920;17.868;2023-03-01T02:16:14;32.63;;;11.57;;
69910;SDS011;63555;49.920;17.868;2023-03-01T02:26:51;26.50;;;11.75;;
69910;SDS011;63555;49.920;17.868;2023-03-01T02:31:52;27.20;;;10.40;;
69910;SDS011;63555;49.920;17.868;2023-03-01T02:36:58;27.83;;;11.33;;
69910;SDS011;63555;49.920;17.868;2023-03-01T02:42:04;25.52;;;10.43;;
69910;SDS011;63555;49.920;17.868;2023-03-01T02:47:06;30.98;;;10.75;;
69910;SDS011;63555;49.920;17.868;2023-03-01T02:57:13;23.35;;;8.90;;
69910;SDS011;63555;49.920;17.868;2023-03-01T03:02:21;20.90;;;8.97;;
69910;SDS011;63555;49.920;17.868;2023-03-01T03:07:40;24.98;;;10.10;;
69910;SDS011;63555;49.920;17.868;2023-03-01T03:12:42;25.85;;;10.82;;
69910;SDS011;63555;49.920;17.868;2023-03-01T03:17:42;23.27;;;9.73;;
69910;SDS011;63555;49.920;17.868;2023-03-01T03:22:42;27.03;;;11.03;;
69910;SDS011;63555;49.920;17.868;2023-03-01T03:27:44;26.07;;;10.20;;
69910;SDS011;63555;49.920;17.868;2023-03-01T03:32:47;18.43;;;8.60;;
69910;SDS011;63555;49.920;17.868;2023-03-01T03:37:52;24.38;;;9.05;;
69910;SDS011;63555;49.920;17.868;2023-03-01T03:43:02;26.60;;;10.50;;
69910;SDS011;63555;49.920;17.868;2023-03-01T03:48:08;20.00;;;8.33;;
69910;SDS011;63555;49.920;17.868;2023-03-01T03:53:11;26.80;;;10.90;;
69910;SDS011;63555;49.920;17.868;2023-03-01T03:58:11;23.70;;;8.57;;
69910;SDS011;63555;49.920;17.868;2023-03-01T04:03:13;20.83;;;8.73;;
69910;SDS011;63555;49.920;17.868;2023-03-01T04:08:14;21.80;;;9.25;;
69910;SDS011;63555;49.920;17.868;2023-03-01T04:13:16;21.83;;;9.37;;
69910;SDS011;63555;49.920;17.868;2023-03-01T04:18:22;19.92;;;9.73;;
69910;SDS011;63555;49.920;17.868;2023-03-01T04:23:25;22.80;;;9.32;;
69910;SDS011;63555;49.920;17.868;2023-03-01T04:28:29;24.70;;;9.37;;
69910;SDS011;63555;49.920;17.868;2023-03-01T04:33:37;22.65;;;9.65;;
69910;SDS011;63555;49.920;17.868;2023-03-01T04:38:37;25.10;;;9.47;;
69910;SDS011;63555;49.920;17.868;2023-03-01T04:43:38;21.80;;;9.80;;
69910;SDS011;63555;49.920;17.868;2023-03-01T04:48:39;21.07;;;9.20;;
69910;SDS011;63555;49.920;17.868;2023-03-01T04:53:41;25.65;;;10.18;;
69910;SDS011;63555;49.920;17.868;2023-03-01T04:58:42;28.50;;;10.23;;
69910;SDS011;63555;49.920;17.868;2023-03-01T05:03:43;24.58;;;8.32;;
69910;SDS011;63555;49.920;17.868;2023-03-01T05:08:45;22.70;;;9.20;;
69910;SDS011;63555;49.920;17.868;2023-03-01T05:13:45;22.57;;;8.93;;
69910;SDS011;63555;49.920;17.868;2023-03-01T05:18:45;23.67;;;8.13;;
69910;SDS011;63555;49.920;17.868;2023-03-01T05:23:46;24.20;;;11.53;;
69910;SDS011;63555;49.920;17.868;2023-03-01T05:28:46;21.10;;;9.47;;
69910;SDS011;63555;49.920;17.868;2023-03-01T05:33:47;34.95;;;11.63;;
69910;SDS011;63555;49.920;17.868;2023-03-01T05:38:48;26.90;;;10.80;;
69910;SDS011;63555;49.920;17.868;2023-03-01T05:43:48;28.17;;;11.17;;
69910;SDS011;63555;49.920;17.868;2023-03-01T05:48:48;26.43;;;10.93;;
69910;SDS011;63555;49.920;17.868;2023-03-01T05:53:49;25.67;;;10.00;;
69910;SDS011;63555;49.920;17.868;2023-03-01T05:58:49;26.08;;;8.65;;
69910;SDS011;63555;49.920;17.868;2023-03-01T06:03:50;28.17;;;10.23;;
69910;SDS011;63555;49.920;17.868;2023-03-01T06:08:50;29.87;;;10.83;;
69910;SDS011;63555;49.920;17.868;2023-03-01T06:13:51;31.93;;;12.40;;
69910;SDS011;63555;49.920;17.868;2023-03-01T06:18:52;33.00;;;14.67;;
69910;SDS011;63555;49.920;17.868;2023-03-01T06:23:52;40.43;;;13.10;;
69910;SDS011;63555;49.920;17.868;2023-03-01T06:28:52;46.70;;;17.57;;
69910;SDS011;63555;49.920;17.868;2023-03-01T06:33:53;86.87;;;30.23;;
69910;SDS011;63555;49.920;17.868;2023-03-01T06:38:54;56.08;;;20.80;;
69910;SDS011;63555;49.920;17.868;2023-03-01T06:43:54;51.20;;;20.60;;
69910;SDS011;63555;49.920;17.868;2023-03-01T06:48:54;29.63;;;12.37;;
69910;SDS011;63555;49.920;17.868;2023-03-01T06:53:55;42.60;;;15.27;;
69910;SDS011;63555;49.920;17.868;2023-03-01T06:58:55;37.90;;;14.97;;
69910;SDS011;63555;49.920;17.868;2023-03-01T07:03:55;36.63;;;14.80;;
69910;SDS011;63555;49.920;17.868;2023-03-01T07:08:56;33.07;;;13.47;;
69910;SDS011;63555;49.920;17.868;2023-03-01T07:13:57;34.27;;;13.93;;
69910;SDS011;63555;49.920;17.868;2023-03-01T07:18:58;36.20;;;15.40;;
69910;SDS011;63555;49.920;17.868;2023-03-01T07:23:58;36.30;;;13.83;;
69910;SDS011;63555;49.920;17.868;2023-03-01T07:28:59;32.93;;;13.67;;
69910;SDS011;63555;49.920;17.868;2023-03-01T07:34:01;34.78;;;15.60;;
69910;SDS011;63555;49.920;17.868;2023-03-01T07:39:01;40.00;;;17.23;;
69910;SDS011;63555;49.920;17.868;2023-03-01T07:44:03;35.60;;;14.63;;
69910;SDS011;63555;49.920;17.868;2023-03-01T07:49:04;32.40;;;14.90;;
69910;SDS011;63555;49.920;17.868;2023-03-01T07:54:05;29.17;;;15.00;;
69910;SDS011;63555;49.920;17.868;2023-03-01T07:59:05;28.97;;;14.97;;
69910;SDS011;63555;49.920;17.868;2023-03-01T08:04:07;31.33;;;15.70;;
69910;SDS011;63555;49.920;17.868;2023-03-01T08:09:08;35.65;;;15.25;;
69910;SDS011;63555;49.920;17.868;2023-03-01T08:14:09;38.47;;;16.58;;
69910;SDS011;63555;49.920;17.868;2023-03-01T08:19:11;35.72;;;15.63;;
69910;SDS011;63555;49.920;17.868;2023-03-01T08:24:12;33.45;;;16.27;;
69910;SDS011;63555;49.920;17.868;2023-03-01T08:29:12;35.90;;;16.73;;
69910;SDS011;63555;49.920;17.868;2023-03-01T08:34:13;30.70;;;15.87;;
69910;SDS011;63555;49.920;17.868;2023-03-01T08:39:16;37.43;;;16.97;;
69910;SDS011;63555;49.920;17.868;2023-03-01T08:44:18;38.33;;;17.27;;
69910;SDS011;63555;49.920;17.868;2023-03-01T08:49:19;34.28;;;16.98;;
69910;SDS011;63555;49.920;17.868;2023-03-01T08:54:21;33.50;;;17.58;;
69910;SDS011;63555;49.920;17.868;2023-03-01T08:59:22;35.15;;;18.88;;
69910;SDS011;63555;49.920;17.868;2023-03-01T09:04:22;33.67;;;18.13;;
69910;SDS011;63555;49.920;17.868;2023-03-01T09:09:22;36.10;;;19.40;;
69910;SDS011;63555;49.920;17.868;2023-03-01T09:14:23;36.20;;;18.70;;
69910;SDS011;63555;49.920;17.868;2023-03-01T09:19:23;34.63;;;17.10;;
69910;SDS011;63555;49.920;17.868;2023-03-01T09:24:24;34.03;;;17.77;;
69910;SDS011;63555;49.920;17.868;2023-03-01T09:29:25;32.47;;;16.83;;
69910;SDS011;63555;49.920;17.868;2023-03-01T09:34:25;30.77;;;17.27;;
69910;SDS011;63555;49.920;17.868;2023-03-01T09:39:26;32.40;;;17.00;;
69910;SDS011;63555;49.920;17.868;2023-03-01T09:49:36;39.20;;;20.13;;
69910;SDS011;63555;49.920;17.868;2023-03-01T09:54:41;35.07;;;17.53;;
69910;SDS011;63555;49.920;17.868;2023-03-01T10:05:05;29.48;;;16.10;;
69910;SDS011;63555;49.920;17.868;2023-03-01T10:10:16;31.23;;;16.10;;
69910;SDS011;63555;49.920;17.868;2023-03-01T10:15:39;33.08;;;16.52;;
69910;SDS011;63555;49.920;17.868;2023-03-01T10:31:25;27.52;;;15.48;;
69910;SDS011;63555;49.920;17.868;2023-03-01T10:36:29;31.08;;;18.02;;
69910;SDS011;63555;49.920;17.868;2023-03-01T10:41:32;29.85;;;16.70;;
69910;SDS011;63555;49.920;17.868;2023-03-01T10:46:34;33.57;;;17.50;;
69910;SDS011;63555;49.920;17.868;2023-03-01T10:51:36;32.35;;;18.13;;
69910;SDS011;63555;49.920;17.868;2023-03-01T10:56:46;32.67;;;16.67;;
69910;SDS011;63555;49.920;17.868;2023-03-01T11:07:15;31.25;;;17.23;;
69910;SDS011;63555;49.920;17.868;2023-03-01T11:12:16;30.80;;;16.03;;
69910;SDS011;63555;49.920;17.868;2023-03-01T11:22:28;32.80;;;17.52;;
69910;SDS011;63555;49.920;17.868;2023-03-01T11:27:32;35.67;;;20.30;;
69910;SDS011;63555;49.920;17.868;2023-03-01T11:32:35;45.45;;;25.50;;
69910;SDS011;63555;49.920;17.868;2023-03-01T11:48:43;40.45;;;22.17;;
69910;SDS011;63555;49.920;17.868;2023-03-01T11:54:40;37.00;;;20.97;;
69910;SDS011;63555;49.920;17.868;2023-03-01T12:10:42;34.85;;;18.77;;
69910;SDS011;63555;49.920;17.868;2023-03-01T12:15:51;31.98;;;17.15;;
69910;SDS011;63555;49.920;17.868;2023-03-01T12:21:42;31.90;;;17.20;;
69910;SDS011;63555;49.920;17.868;2023-03-01T12:52:41;31.30;;;16.95;;
69910;SDS011;63555;49.920;17.868;2023-03-01T12:57:56;31.63;;;17.77;;
69910;SDS011;63555;49.920;17.868;2023-03-01T13:08:20;37.67;;;18.02;;
69910;SDS011;63555;49.920;17.868;2023-03-01T13:13:29;30.43;;;17.60;;
69910;SDS011;63555;49.920;17.868;2023-03-01T13:18:31;34.53;;;16.65;;
69910;SDS011;63555;49.920;17.868;2023-03-01T13:23:34;33.77;;;16.97;;
69910;SDS011;63555;49.920;17.868;2023-03-01T13:28:50;34.10;;;18.17;;
69910;SDS011;63555;49.920;17.868;2023-03-01T13:33:52;30.98;;;17.58;;
69910;SDS011;63555;49.920;17.868;2023-03-01T13:44:34;34.90;;;17.98;;
69910;SDS011;63555;49.920;17.868;2023-03-01T13:49:43;29.70;;;17.00;;
69910;SDS011;63555;49.920;17.868;2023-03-01T13:54:57;32.47;;;17.38;;
69910;SDS011;63555;49.920;17.868;2023-03-01T13:59:59;33.42;;;17.63;;
69910;SDS011;63555;49.920;17.868;2023-03-01T14:05:00;34.97;;;19.03;;
69910;SDS011;63555;49.920;17.868;2023-03-01T14:10:03;33.57;;;19.13;;
69910;SDS011;63555;49.920;17.868;2023-03-01T14:20:25;36.78;;;18.88;;
69910;SDS011;63555;49.920;17.868;2023-03-01T14:25:31;33.88;;;18.40;;
69910;SDS011;63555;49.920;17.868;2023-03-01T14:30:37;38.78;;;17.60;;
69910;SDS011;63555;49.920;17.868;2023-03-01T14:35:41;31.57;;;16.40;;
69910;SDS011;63555;49.920;17.868;2023-03-01T14:40:41;34.15;;;16.52;;
69910;SDS011;63555;49.920;17.868;2023-03-01T14:45:42;34.45;;;17.02;;
69910;SDS011;63555;49.920;17.868;2023-03-01T14:50:48;32.37;;;16.67;;
69910;SDS011;63555;49.920;17.868;2023-03-01T14:55:54;33.47;;;16.00;;
69910;SDS011;63555;49.920;17.868;2023-03-01T15:00:57;34.10;;;15.80;;
69910;SDS011;63555;49.920;17.868;2023-03-01T15:06:02;38.13;;;16.37;;
69910;SDS011;63555;49.920;17.868;2023-03-01T15:11:16;34.08;;;15.77;;
69910;SDS011;63555;49.920;17.868;2023-03-01T15:21:31;34.38;;;15.50;;
69910;SDS011;63555;49.920;17.868;2023-03-01T15:26:37;34.28;;;14.70;;
69910;SDS011;63555;49.920;17.868;2023-03-01T15:31:41;34.43;;;15.73;;
69910;SDS011;63555;49.920;17.868;2023-03-01T15:41:46;35.78;;;15.23;;
69910;SDS011;63555;49.920;17.868;2023-03-01T15:46:48;41.20;;;17.03;;
69910;SDS011;63555;49.920;17.868;2023-03-01T15:51:48;47.40;;;17.80;;
69910;SDS011;63555;49.920;17.868;2023-03-01T15:56:49;37.03;;;16.40;;
69910;SDS011;63555;49.920;17.868;2023-03-01T16:01:50;44.88;;;17.25;;
69910;SDS011;63555;49.920;17.868;2023-03-01T16:06:51;47.23;;;18.80;;
69910;SDS011;63555;49.920;17.868;2023-03-01T16:11:54;40.85;;;16.50;;
69910;SDS011;63555;49.920;17.868;2023-03-01T16:16:54;44.77;;;15.90;;
69910;SDS011;63555;49.920;17.868;2023-03-01T16:21:54;45.93;;;17.13;;
69910;SDS011;63555;49.920;17.868;2023-03-01T16:26:55;36.43;;;16.17;;
69910;SDS011;63555;49.920;17.868;2023-03-01T16:31:55;44.10;;;16.17;;
69910;SDS011;63555;49.920;17.868;2023-03-01T16:36:56;40.23;;;15.73;;
69910;SDS011;63555;49.920;17.868;2023-03-01T16:41:56;32.63;;;13.73;;
69910;SDS011;63555;49.920;17.868;2023-03-01T16:46:59;39.40;;;15.03;;
69910;SDS011;63555;49.920;17.868;2023-03-01T16:51:59;35.47;;;15.73;;
69910;SDS011;63555;49.920;17.868;2023-03-01T16:57:00;39.23;;;15.37;;
69910;SDS011;63555;49.920;17.868;2023-03-01T17:02:00;40.33;;;16.40;;
69910;SDS011;63555;49.920;17.868;2023-03-01T17:07:01;41.93;;;16.03;;
69910;SDS011;63555;49.920;17.868;2023-03-01T17:12:01;54.07;;;19.67;;
69910;SDS011;63555;49.920;17.868;2023-03-01T17:17:02;53.85;;;19.48;;
69910;SDS011;63555;49.920;17.868;2023-03-01T17:22:02;50.03;;;18.87;;
69910;SDS011;63555;49.920;17.868;2023-03-01T17:27:03;63.50;;;23.27;;
69910;SDS011;63555;49.920;17.868;2023-03-01T17:32:05;61.90;;;22.77;;
69910;SDS011;63555;49.920;17.868;2023-03-01T17:37:05;70.93;;;25.55;;
69910;SDS011;63555;49.920;17.868;2023-03-01T17:42:05;74.83;;;27.13;;
69910;SDS011;63555;49.920;17.868;2023-03-01T17:47:06;67.17;;;24.90;;
69910;SDS011;63555;49.920;17.868;2023-03-01T17:52:06;80.17;;;29.77;;
69910;SDS011;63555;49.920;17.868;2023-03-01T17:57:07;68.83;;;27.70;;
69910;SDS011;63555;49.920;17.868;2023-03-01T18:02:09;65.23;;;24.27;;
69910;SDS011;63555;49.920;17.868;2023-03-01T18:07:11;59.13;;;22.47;;
69910;SDS011;63555;49.920;17.868;2023-03-01T18:12:11;59.23;;;23.87;;
69910;SDS011;63555;49.920;17.868;2023-03-01T18:17:12;60.40;;;21.60;;
69910;SDS011;63555;49.920;17.868;2023-03-01T18:22:12;51.27;;;19.50;;
69910;SDS011;63555;49.920;17.868;2023-03-01T18:27:13;46.83;;;20.27;;
69910;SDS011;63555;49.920;17.868;2023-03-01T18:32:13;56.85;;;23.60;;
69910;SDS011;63555;49.920;17.868;2023-03-01T18:37:14;62.17;;;25.33;;
69910;SDS011;63555;49.920;17.868;2023-03-01T18:42:15;77.63;;;29.40;;
69910;SDS011;63555;49.920;17.868;2023-03-01T18:47:15;86.37;;;30.93;;
69910;SDS011;63555;49.920;17.868;2023-03-01T18:52:16;55.27;;;22.70;;
69910;SDS011;63555;49.920;17.868;2023-03-01T18:57:16;54.57;;;19.87;;
69910;SDS011;63555;49.920;17.868;2023-03-01T19:02:16;60.43;;;21.60;;
69910;SDS011;63555;49.920;17.868;2023-03-01T19:07:17;61.40;;;22.57;;
69910;SDS011;63555;49.920;17.868;2023-03-01T19:12:17;60.40;;;22.87;;
69910;SDS011;63555;49.920;17.868;2023-03-01T19:17:19;54.10;;;21.03;;
69910;SDS011;63555;49.920;17.868;2023-03-01T19:22:23;57.70;;;21.73;;
69910;SDS011;63555;49.920;17.868;2023-03-01T19:27:25;73.68;;;25.27;;
69910;SDS011;63555;49.920;17.868;2023-03-01T19:32:25;63.07;;;23.40;;
69910;SDS011;63555;49.920;17.868;2023-03-01T19:37:25;50.67;;;20.70;;
69910;SDS011;63555;49.920;17.868;2023-03-01T19:42:26;51.70;;;20.80;;
69910;SDS011;63555;49.920;17.868;2023-03-01T19:47:27;62.28;;;20.95;;
69910;SDS011;63555;49.920;17.868;2023-03-01T19:52:27;53.73;;;19.53;;
69910;SDS011;63555;49.920;17.868;2023-03-01T19:57:28;62.07;;;22.67;;
69910;SDS011;63555;49.920;17.868;2023-03-01T20:02:28;61.80;;;21.83;;
69910;SDS011;63555;49.920;17.868;2023-03-01T20:07:28;84.97;;;30.67;;
69910;SDS011;63555;49.920;17.868;2023-03-01T20:12:29;71.13;;;27.07;;
69910;SDS011;63555;49.920;17.868;2023-03-01T20:17:29;64.50;;;24.17;;
69910;SDS011;63555;49.920;17.868;2023-03-01T20:22:29;74.07;;;26.83;;
69910;SDS011;63555;49.920;17.868;2023-03-01T20:27:30;82.80;;;31.00;;
69910;SDS011;63555;49.920;17.868;2023-03-01T20:32:31;83.77;;;30.00;;
69910;SDS011;63555;49.920;17.868;2023-03-01T20:37:32;80.28;;;29.05;;
69910;SDS011;63555;49.920;17.868;2023-03-01T20:42:32;64.07;;;24.83;;
69910;SDS011;63555;49.920;17.868;2023-03-01T20:47:33;53.90;;;22.13;;
69910;SDS011;63555;49.920;17.868;2023-03-01T20:52:33;72.00;;;23.80;;
69910;SDS011;63555;49.920;17.868;2023-03-01T20:57:33;55.67;;;21.33;;
69910;SDS011;63555;49.920;17.868;2023-03-01T21:02:34;58.70;;;22.33;;
69910;SDS011;63555;49.920;17.868;2023-03-01T21:07:34;56.00;;;22.07;;
69910;SDS011;63555;49.920;17.868;2023-03-01T21:12:35;53.10;;;20.00;;
69910;SDS011;63555;49.920;17.868;2023-03-01T21:17:35;54.93;;;20.07;;
69910;SDS011;63555;49.920;17.868;2023-03-01T21:22:35;45.33;;;19.80;;
69910;SDS011;63555;49.920;17.868;2023-03-01T21:27:36;50.47;;;17.37;;
69910;SDS011;63555;49.920;17.868;2023-03-01T21:32:37;59.47;;;21.93;;
69910;SDS011;63555;49.920;17.868;2023-03-01T21:37:37;57.40;;;21.83;;
69910;SDS011;63555;49.920;17.868;2023-03-01T21:42:39;58.95;;;21.58;;
69910;SDS011;63555;49.920;17.868;2023-03-01T21:47:41;55.50;;;21.38;;
69910;SDS011;63555;49.920;17.868;2023-03-01T21:52:42;65.13;;;22.93;;
69910;SDS011;63555;49.920;17.868;2023-03-01T21:57:42;47.73;;;21.07;;
69910;SDS011;63555;49.920;17.868;2023-03-01T22:02:43;59.40;;;22.15;;
69910;SDS011;63555;49.920;17.868;2023-03-01T22:07:43;66.57;;;24.73;;
69910;SDS011;63555;49.920;17.868;2023-03-01T22:12:43;54.20;;;21.37;;
69910;SDS011;63555;49.920;17.868;2023-03-01T22:17:44;51.73;;;20.40;;
69910;SDS011;63555;49.920;17.868;2023-03-01T22:22:45;58.40;;;20.20;;
69910;SDS011;63555;49.920;17.868;2023-03-01T22:27:45;47.73;;;18.10;;
69910;SDS011;63555;49.920;17.868;2023-03-01T22:32:45;51.60;;;19.33;;
69910;SDS011;63555;49.920;17.868;2023-03-01T22:37:46;55.13;;;18.53;;
69910;SDS011;63555;49.920;17.868;2023-03-01T22:42:46;52.97;;;19.10;;
69910;SDS011;63555;49.920;17.868;2023-03-01T22:47:46;51.60;;;18.97;;
69910;SDS011;63555;49.920;17.868;2023-03-01T22:52:47;53.40;;;18.50;;
69910;SDS011;63555;49.920;17.868;2023-03-01T22:57:50;40.43;;;17.53;;
69910;SDS011;63555;49.920;17.868;2023-03-01T23:02:51;57.67;;;17.15;;
69910;SDS011;63555;49.920;17.868;2023-03-01T23:13:48;45.72;;;18.88;;
69910;SDS011;63555;49.920;17.868;2023-03-01T23:18:49;55.83;;;19.20;;
69910;SDS011;63555;49.920;17.868;2023-03-01T23:23:49;56.33;;;20.67;;
69910;SDS011;63555;49.920;17.868;2023-03-01T23:28:50;52.03;;;19.08;;
69910;SDS011;63555;49.920;17.868;2023-03-01T23:33:50;47.95;;;18.50;;
69910;SDS011;63555;49.920;17.868;2023-03-01T23:38:52;47.90;;;18.40;;
69910;SDS011;63555;49.920;17.868;2023-03-01T23:43:56;48.97;;;17.95;;
69910;SDS011;63555;49.920;17.868;2023-03-01T23:48:59;51.95;;;18.42;;
69910;SDS011;63555;49.920;17.868;2023-03-01T23:54:00;47.47;;;17.37;;
69910;SDS011;63555;49.920;17.868;2023-03-01T23:59:05;54.85;;;19.15;;
